aviador You're here:

LFLX Decoded Metar

CHATEAUROUX in FRANCE
Report Time2017-11-25 00:00:00
UTC Time2017-11-25 00:11:06
Flight Rules mvfr MVFR
Wind230° at 04 kt
W.Decomp.*RWY 21: 3.8 kt HW 1.4 kt RCW
W.Rank230° ranks 3
Current wind is below 230° avg. (9.7)
Visibility6000 m
Phenomena:Rain
Clouds:Few 020 Hf
Overcast 045 Hf
Expected CloudBase > 400 ft AGL from Temp-Dew spread
Ceiling4,500 ft
Temp09°C (ISA -5)
Dew Point08°C (94% RH)
AAT7.1°C
QNH1013 hPa
Density Alt66 ft
Elevation515 ft
Report Wrong Elevation
Raw Report
METAR LFLX 250000Z AUTO 23004KT 6000 -RA FEW020 OVC045 09/08 Q1013
TEMPO 2000 RA BKN004=

Extra information for LFLX:More info

Metar Taf Metar & Taf Last 4 Metars F.Rules Stats Wind Profile Meteogram Temp Stats Airport Information Weather charts Add Link Nearby VenuesMetar ALERT Operation Metar Decoded Social comments